createdAt,value
2019-04-16T00:04:22.266Z,13.07
2019-04-16T00:09:42.111Z,13.13
2019-04-16T00:14:44.555Z,12.37
2019-04-16T00:19:47.045Z,11.90
2019-04-16T00:24:49.522Z,12.57
2019-04-16T00:29:51.974Z,12.43
2019-04-16T00:34:54.447Z,12.50
2019-04-16T00:39:57.058Z,12.10
2019-04-16T00:44:59.529Z,12.97
2019-04-16T00:50:01.882Z,12.27
2019-04-16T00:55:05.756Z,12.13
2019-04-16T01:00:06.774Z,13.00
2019-04-16T01:05:09.244Z,13.07
2019-04-16T01:10:11.710Z,13.87
2019-04-16T01:15:14.212Z,12.43
2019-04-16T01:20:16.677Z,12.70
2019-04-16T01:25:20.252Z,13.03
2019-04-16T01:30:21.592Z,11.80
2019-04-16T01:35:30.288Z,12.57
2019-04-16T01:40:32.761Z,12.50
2019-04-16T01:45:35.235Z,12.30
2019-04-16T01:50:37.694Z,12.83
2019-04-16T01:55:42.479Z,12.00
2019-04-16T02:00:42.623Z,12.73
2019-04-16T02:05:45.117Z,12.83
2019-04-16T02:10:47.627Z,12.00
2019-04-16T02:15:50.634Z,13.00
2019-04-16T02:20:52.495Z,12.60
2019-04-16T02:25:54.964Z,13.00
2019-04-16T02:30:57.440Z,11.83
2019-04-16T02:35:59.912Z,12.60
2019-04-16T02:41:02.415Z,13.00
2019-04-16T02:46:04.981Z,12.83
2019-04-16T02:51:08.539Z,12.87
2019-04-16T02:56:19.317Z,13.23
2019-04-16T03:01:24.115Z,12.60
2019-04-16T03:06:26.588Z,13.10
2019-04-16T03:11:29.048Z,12.87
2019-04-16T03:16:37.706Z,12.00
2019-04-16T03:21:36.499Z,13.40
2019-04-16T03:26:38.962Z,12.93
2019-04-16T03:31:41.431Z,13.03
2019-04-16T03:36:43.896Z,12.90
2019-04-16T03:41:46.379Z,13.30
2019-04-16T03:46:48.823Z,13.87
2019-04-16T03:51:51.279Z,13.83
2019-04-16T03:56:53.736Z,14.30
2019-04-16T04:01:56.213Z,12.83
2019-04-16T04:06:58.679Z,12.50
2019-04-16T04:12:01.157Z,13.87
2019-04-16T04:17:06.681Z,13.40
2019-04-16T04:22:06.078Z,14.00
2019-04-16T04:27:13.077Z,13.53
2019-04-16T04:32:11.045Z,14.93
2019-04-16T04:37:13.484Z,14.27
2019-04-16T04:42:18.985Z,14.43
2019-04-16T04:47:20.060Z,14.93
2019-04-16T04:52:21.032Z,14.27
2019-04-16T04:57:23.560Z,14.63
2019-04-16T05:02:26.023Z,14.40
2019-04-16T05:07:29.344Z,14.30
2019-04-16T05:12:30.977Z,16.03
2019-04-16T05:17:35.431Z,15.40
2019-04-16T05:22:35.927Z,14.87
2019-04-16T05:27:41.274Z,14.93
2019-04-16T05:32:40.905Z,14.90
2019-04-16T05:37:43.364Z,15.23
2019-04-16T05:42:45.833Z,15.20
2019-04-16T05:47:48.987Z,14.93
2019-04-16T05:52:50.766Z,15.43
2019-04-16T05:57:57.932Z,15.57
2019-04-16T06:02:55.700Z,15.33
2019-04-16T06:07:58.159Z,15.40
2019-04-16T06:13:12.677Z,15.67
2019-04-16T06:18:24.386Z,15.17
2019-04-16T06:23:38.804Z,15.37
2019-04-16T06:28:59.973Z,15.67
2019-04-16T06:34:01.923Z,15.53
2019-04-16T06:39:13.461Z,16.63
2019-04-16T06:44:15.951Z,15.60
2019-04-16T06:49:39.399Z,14.53
2019-04-16T06:54:39.219Z,15.60
2019-04-16T07:00:54.596Z,15.63
2019-04-16T07:05:04.867Z,15.60
2019-04-16T07:10:07.321Z,15.50
2019-04-16T07:15:09.791Z,15.03
2019-04-16T07:20:13.527Z,15.87
2019-04-16T07:25:15.486Z,15.87
2019-04-16T07:30:19.768Z,15.20
2019-04-16T07:35:38.188Z,15.53
2019-04-16T07:40:58.780Z,15.83
2019-04-16T07:46:19.460Z,16.00
2019-04-16T07:51:27.910Z,15.27
2019-04-16T07:56:30.380Z,15.57
2019-04-16T08:01:32.839Z,15.50
2019-04-16T08:06:35.317Z,15.93
2019-04-16T08:11:37.798Z,15.97
2019-04-16T08:16:47.084Z,15.57
2019-04-16T08:21:44.266Z,14.63
2019-04-16T08:26:45.441Z,14.70
2019-04-16T08:31:47.725Z,13.35
2019-04-16T08:36:50.203Z,13.40
2019-04-16T08:41:53.109Z,12.77
2019-04-16T08:46:58.302Z,13.80
2019-04-16T08:51:57.658Z,13.85
2019-04-16T08:57:00.408Z,13.32
2019-04-16T09:02:02.603Z,14.32
2019-04-16T09:07:12.075Z,14.75
2019-04-16T09:12:09.308Z,14.63
2019-04-16T09:17:10.463Z,14.57
2019-04-16T09:22:16.181Z,13.00
2019-04-16T09:27:30.077Z,12.95
2019-04-16T09:32:48.075Z,13.20
2019-04-16T09:37:53.067Z,14.23
2019-04-16T09:42:55.588Z,16.65
2019-04-16T09:47:58.014Z,14.82
2019-04-16T09:53:02.050Z,15.85
2019-04-16T09:58:06.072Z,15.43
2019-04-16T10:03:23.577Z,16.20
2019-04-16T10:08:29.143Z,15.90
2019-04-16T10:13:31.823Z,16.10
2019-04-16T10:18:34.659Z,14.68
2019-04-16T10:23:39.575Z,15.93
2019-04-16T10:28:42.070Z,16.83
2019-04-16T10:33:44.535Z,15.75
2019-04-16T10:38:49.843Z,14.35
2019-04-16T10:43:57.861Z,16.52
2019-04-16T10:49:15.726Z,15.60
2019-04-16T10:54:20.864Z,16.67
2019-04-16T10:59:41.452Z,16.45
2019-04-16T11:04:44.030Z,18.87
2019-04-16T11:09:46.615Z,17.50
2019-04-16T11:14:48.998Z,16.73
2019-04-16T11:19:54.151Z,15.57
2019-04-16T11:24:53.983Z,15.80
2019-04-16T11:29:56.461Z,16.08
2019-04-16T11:34:58.909Z,15.65
2019-04-16T11:40:01.480Z,15.40
2019-04-16T11:45:03.886Z,16.83
2019-04-16T11:50:06.703Z,14.20
2019-04-16T11:55:08.927Z,13.30
2019-04-16T12:00:11.493Z,14.67
2019-04-16T12:05:13.936Z,14.27
2019-04-16T12:10:16.519Z,12.60
2019-04-16T12:15:21.575Z,15.27
2019-04-16T12:20:42.511Z,14.63
2019-04-16T12:25:50.897Z,11.27
2019-04-16T12:31:08.620Z,11.23
2019-04-16T12:36:14.596Z,13.93
2019-04-16T12:41:34.891Z,15.10
2019-04-16T12:46:40.272Z,12.93
2019-04-16T12:51:45.525Z,13.63
2019-04-16T12:57:03.263Z,11.20
2019-04-16T13:02:20.868Z,11.53
2019-04-16T13:07:41.321Z,11.63
2019-04-16T13:12:43.807Z,10.50
2019-04-16T13:18:04.718Z,10.57
2019-04-16T13:23:25.308Z,9.70
2019-04-16T13:28:27.773Z,9.30
2019-04-16T13:33:30.238Z,9.97
2019-04-16T13:38:41.923Z,9.57
2019-04-16T13:43:44.390Z,10.33
2019-04-16T13:48:46.893Z,9.93
2019-04-16T13:53:52.327Z,10.57
2019-04-16T13:58:56.071Z,9.77
2019-04-16T14:03:57.295Z,9.90
2019-04-16T14:08:59.761Z,9.33
2019-04-16T14:14:08.086Z,10.33
2019-04-16T14:19:09.344Z,9.30
2019-04-16T14:24:12.543Z,10.70
2019-04-16T14:29:13.950Z,9.73
2019-04-16T14:34:22.653Z,9.80
2019-04-16T14:39:25.148Z,10.33
2019-04-16T14:44:27.645Z,10.43
2019-04-16T14:49:30.148Z,10.20
2019-04-16T14:54:32.620Z,11.70
2019-04-16T14:59:37.851Z,11.53
2019-04-16T15:04:43.221Z,11.70
2019-04-16T15:09:51.833Z,11.10
2019-04-16T15:15:08.537Z,11.23
2019-04-16T15:20:11.972Z,11.70
2019-04-16T15:25:23.571Z,10.93
2019-04-16T15:30:44.243Z,9.73
2019-04-16T15:35:49.637Z,10.27
2019-04-16T15:40:52.120Z,10.37
2019-04-16T15:46:18.124Z,10.20
2019-04-16T15:51:27.668Z,9.27
2019-04-16T15:56:30.196Z,10.07
2019-04-16T16:01:35.485Z,9.33
2019-04-16T16:06:38.014Z,12.13
2019-04-16T16:11:51.186Z,12.00
2019-04-16T16:16:52.195Z,10.10
2019-04-16T16:21:54.689Z,11.03
2019-04-16T16:26:57.190Z,11.60
2019-04-16T16:31:59.694Z,11.13
2019-04-16T16:37:02.165Z,10.93
2019-04-16T16:42:04.644Z,10.47
2019-04-16T16:47:25.529Z,15.03
2019-04-16T16:52:28.042Z,12.33
2019-04-16T16:57:48.989Z,10.00
2019-04-16T17:02:51.464Z,10.60
2019-04-16T17:07:55.141Z,10.57
2019-04-16T17:12:56.539Z,9.87
2019-04-16T17:17:59.023Z,32.00
2019-04-16T17:23:01.520Z,10.23
2019-04-16T17:28:04.010Z,10.10
2019-04-16T17:33:06.505Z,11.57
2019-04-16T17:38:08.987Z,10.17
2019-04-16T17:43:14.285Z,9.67
2019-04-16T17:48:25.898Z,8.80
2019-04-16T17:53:43.542Z,10.10
2019-04-16T17:58:48.511Z,10.33
2019-04-16T18:03:51.158Z,9.90
2019-04-16T18:09:11.889Z,10.50
2019-04-16T18:14:32.549Z,9.10
2019-04-16T18:19:35.029Z,18.80
2019-04-16T18:24:55.672Z,11.67
2019-04-16T18:30:07.198Z,11.17
2019-04-16T18:35:09.584Z,10.87
2019-04-16T18:40:24.270Z,8.93
2019-04-16T18:45:29.410Z,6.43
2019-04-16T18:50:31.902Z,5.80
2019-04-16T18:55:34.376Z,4.33
2019-04-16T19:00:46.089Z,4.30
2019-04-16T19:05:48.608Z,4.50
2019-04-16T19:10:51.080Z,6.17
2019-04-16T19:15:53.577Z,5.10
2019-04-16T19:20:56.078Z,5.67
2019-04-16T19:25:58.613Z,5.43
2019-04-16T19:31:01.081Z,5.57
2019-04-16T19:36:03.560Z,6.07
2019-04-16T19:41:06.060Z,6.20
2019-04-16T19:46:08.732Z,5.77
2019-04-16T19:51:11.505Z,5.90
2019-04-16T19:56:15.542Z,13.40
2019-04-16T20:01:16.460Z,6.93
2019-04-16T20:06:18.934Z,7.70
2019-04-16T20:11:21.791Z,6.90
2019-04-16T20:16:23.916Z,6.37
2019-04-16T20:21:26.412Z,6.80
2019-04-16T20:26:29.319Z,6.90
2019-04-16T20:31:31.478Z,6.40
2019-04-16T20:36:33.964Z,6.80
2019-04-16T20:41:36.485Z,6.63
2019-04-16T20:46:38.974Z,7.40
2019-04-16T20:51:41.454Z,7.93
2019-04-16T20:56:43.948Z,8.43
2019-04-16T21:01:46.506Z,9.03
2019-04-16T21:06:48.985Z,8.33
2019-04-16T21:11:52.828Z,8.03
2019-04-16T21:16:54.547Z,7.93
2019-04-16T21:21:58.287Z,7.93
2019-04-16T21:26:59.093Z,7.50
2019-04-16T21:32:19.675Z,8.27
2019-04-16T21:37:31.364Z,6.93
2019-04-16T21:42:34.878Z,7.07
2019-04-16T21:47:36.343Z,6.80
2019-04-16T21:52:38.822Z,6.90
2019-04-16T21:57:42.839Z,6.87
2019-04-16T22:02:43.765Z,6.80
2019-04-16T22:07:46.231Z,6.80
2019-04-16T22:12:48.795Z,7.00
2019-04-16T22:17:51.167Z,6.70
2019-04-16T22:22:53.638Z,7.80
2019-04-16T22:27:59.616Z,7.93
2019-04-16T22:33:05.662Z,7.93
2019-04-16T22:38:04.635Z,8.53
2019-04-16T22:43:22.188Z,8.80
2019-04-16T22:48:24.685Z,8.50
2019-04-16T22:53:27.145Z,8.50
2019-04-16T22:58:47.613Z,7.23
2019-04-16T23:03:53.295Z,8.30
2019-04-16T23:08:53.278Z,8.43
2019-04-16T23:13:55.739Z,7.40
2019-04-16T23:18:58.211Z,6.57
2019-04-16T23:24:00.681Z,6.73
2019-04-16T23:29:03.145Z,8.23
2019-04-16T23:34:07.047Z,8.03
2019-04-16T23:39:08.073Z,8.57
2019-04-16T23:44:10.625Z,8.37
2019-04-16T23:49:31.436Z,7.53
2019-04-16T23:54:46.091Z,9.30
2019-04-16T23:59:54.676Z,9.70
